createdAt,value
2022-11-16T00:01:43.093Z,8.60
2022-11-16T00:04:12.941Z,8.43
2022-11-16T00:06:41.211Z,9.00
2022-11-16T00:09:26.704Z,7.97
2022-11-16T00:11:56.589Z,8.97
2022-11-16T00:14:26.325Z,8.80
2022-11-16T00:16:54.260Z,9.20
2022-11-16T00:19:22.078Z,9.10
2022-11-16T00:21:49.799Z,8.83
2022-11-16T00:24:21.454Z,8.53
2022-11-16T00:26:49.992Z,8.97
2022-11-16T00:29:19.952Z,9.50
2022-11-16T00:31:48.599Z,8.40
2022-11-16T00:34:16.843Z,8.70
2022-11-16T00:36:44.503Z,8.40
2022-11-16T00:39:12.987Z,8.73
2022-11-16T00:41:42.821Z,8.87
2022-11-16T00:44:10.957Z,8.40
2022-11-16T00:46:38.811Z,8.60
2022-11-16T00:49:06.585Z,9.03
2022-11-16T00:51:34.911Z,9.20
2022-11-16T00:54:02.830Z,8.27
2022-11-16T00:56:30.514Z,8.87
2022-11-16T00:58:59.534Z,8.20
2022-11-16T01:01:27.233Z,8.80
2022-11-16T01:03:55.156Z,8.63
2022-11-16T01:06:23.521Z,8.90
2022-11-16T01:08:51.583Z,8.17
2022-11-16T01:11:37.501Z,8.03
2022-11-16T01:14:09.127Z,8.90
2022-11-16T01:16:36.852Z,9.43
2022-11-16T01:19:05.173Z,8.40
2022-11-16T01:21:32.938Z,8.30
2022-11-16T01:24:00.573Z,8.73
2022-11-16T01:26:28.268Z,8.83
2022-11-16T01:28:55.889Z,9.73
2022-11-16T01:31:24.885Z,9.03
2022-11-16T01:33:52.503Z,8.87
2022-11-16T01:36:20.191Z,8.43
2022-11-16T01:38:48.315Z,9.10
2022-11-16T01:41:19.443Z,9.60
2022-11-16T01:43:56.779Z,8.70
2022-11-16T01:46:28.334Z,8.17
2022-11-16T01:49:01.211Z,9.13
2022-11-16T01:51:29.389Z,8.70
2022-11-16T01:53:59.111Z,9.90
2022-11-16T01:56:27.169Z,9.97
2022-11-16T01:58:54.975Z,9.43
2022-11-16T02:01:22.768Z,9.80
2022-11-16T02:03:51.793Z,9.17
2022-11-16T02:06:34.857Z,9.97
2022-11-16T02:09:37.597Z,10.13
2022-11-16T02:12:24.330Z,9.37
2022-11-16T02:15:09.814Z,9.50
2022-11-16T02:17:46.513Z,9.90
2022-11-16T02:20:53.214Z,10.03
2022-11-16T02:23:45.830Z,8.93
2022-11-16T02:26:35.361Z,10.63
2022-11-16T02:29:20.165Z,10.17
2022-11-16T02:31:55.367Z,10.40
2022-11-16T02:34:25.713Z,10.57
2022-11-16T02:36:57.067Z,11.03
2022-11-16T02:39:29.359Z,10.60
2022-11-16T02:41:59.958Z,11.13
2022-11-16T02:44:33.689Z,12.07
2022-11-16T02:47:07.180Z,11.03
2022-11-16T02:49:37.427Z,11.17
2022-11-16T02:52:05.845Z,10.67
2022-11-16T02:54:33.526Z,10.67
2022-11-16T02:57:31.140Z,12.50
2022-11-16T03:00:01.396Z,12.27
2022-11-16T03:02:33.144Z,12.13
2022-11-16T03:05:05.509Z,11.57
2022-11-16T03:07:37.729Z,13.37
2022-11-16T03:10:06.392Z,13.80
2022-11-16T03:12:36.133Z,12.93
2022-11-16T03:15:08.367Z,13.17
2022-11-16T03:17:40.457Z,13.63
2022-11-16T03:20:13.219Z,13.57
2022-11-16T03:22:45.176Z,12.70
2022-11-16T03:25:15.293Z,13.57
2022-11-16T03:27:49.438Z,13.70
2022-11-16T03:30:23.725Z,13.17
2022-11-16T03:32:57.806Z,13.23
2022-11-16T03:35:28.834Z,13.67
2022-11-16T03:37:59.612Z,13.40
2022-11-16T03:40:31.416Z,13.93
2022-11-16T03:43:00.417Z,12.00
2022-11-16T03:45:30.414Z,14.73
2022-11-16T03:47:58.188Z,14.73
2022-11-16T03:50:26.799Z,13.27
2022-11-16T03:52:54.400Z,13.70
2022-11-16T03:55:22.062Z,14.40
2022-11-16T03:57:49.751Z,14.87
2022-11-16T04:00:17.511Z,13.93
2022-11-16T04:02:46.474Z,14.17
2022-11-16T04:05:31.678Z,13.63
2022-11-16T04:08:22.337Z,14.60
2022-11-16T04:11:07.588Z,14.67
2022-11-16T04:13:53.522Z,13.57
2022-11-16T04:16:38.703Z,14.33
2022-11-16T04:19:26.821Z,14.13
2022-11-16T04:22:15.114Z,14.07
2022-11-16T04:24:46.895Z,13.83
2022-11-16T04:27:34.118Z,14.07
2022-11-16T04:30:03.667Z,14.20
2022-11-16T04:32:48.675Z,15.07
2022-11-16T04:35:35.574Z,15.30
2022-11-16T04:38:03.299Z,14.50
2022-11-16T04:40:30.931Z,14.33
2022-11-16T04:43:00.607Z,15.17
2022-11-16T04:45:46.784Z,15.03
2022-11-16T04:48:16.146Z,15.50
2022-11-16T04:50:45.494Z,13.90
2022-11-16T04:53:13.719Z,14.83
2022-11-16T04:55:41.432Z,15.53
2022-11-16T04:58:09.476Z,15.57
2022-11-16T05:00:37.105Z,14.33
2022-11-16T05:03:05.876Z,15.90
2022-11-16T05:05:33.482Z,14.67
2022-11-16T05:08:02.520Z,15.00
2022-11-16T05:10:30.528Z,15.47
2022-11-16T05:12:58.825Z,15.13
2022-11-16T05:15:26.527Z,15.53
2022-11-16T05:17:55.746Z,15.93
2022-11-16T05:20:40.790Z,15.00
2022-11-16T05:23:30.561Z,15.10
2022-11-16T05:25:58.234Z,16.37
2022-11-16T05:28:25.899Z,15.43
2022-11-16T05:30:53.559Z,15.53
2022-11-16T05:33:21.219Z,16.17
2022-11-16T05:35:50.756Z,16.20
2022-11-16T05:38:20.252Z,16.43
2022-11-16T05:40:47.974Z,15.67
2022-11-16T05:43:15.762Z,16.33
2022-11-16T05:45:44.209Z,18.30
2022-11-16T05:48:12.694Z,16.73
2022-11-16T05:50:43.054Z,16.93
2022-11-16T05:53:11.479Z,17.97
2022-11-16T05:55:40.779Z,17.63
2022-11-16T05:58:08.710Z,17.47
2022-11-16T06:00:36.903Z,17.93
2022-11-16T06:03:04.956Z,17.87
2022-11-16T06:05:40.024Z,18.07
2022-11-16T06:08:08.602Z,17.83
2022-11-16T06:10:37.007Z,18.03
2022-11-16T06:13:06.452Z,18.40
2022-11-16T06:15:38.203Z,17.90
2022-11-16T06:18:06.302Z,17.77
2022-11-16T06:20:34.154Z,17.70
2022-11-16T06:23:02.194Z,18.00
2022-11-16T06:25:30.878Z,17.30
2022-11-16T06:28:06.587Z,18.00
2022-11-16T06:30:38.086Z,18.57
2022-11-16T06:33:06.184Z,16.83
2022-11-16T06:35:34.359Z,16.53
2022-11-16T06:38:02.022Z,17.80
2022-11-16T06:40:29.730Z,17.17
2022-11-16T06:42:58.203Z,16.67
2022-11-16T06:45:26.145Z,15.97
2022-11-16T06:47:55.233Z,17.50
2022-11-16T06:50:22.947Z,15.83
2022-11-16T06:52:51.029Z,17.20
2022-11-16T06:55:18.909Z,17.73
2022-11-16T06:57:47.128Z,16.57
2022-11-16T07:00:15.932Z,16.80
2022-11-16T07:02:43.691Z,17.17
2022-11-16T07:05:12.742Z,16.23
2022-11-16T07:07:41.804Z,17.50
2022-11-16T07:10:10.461Z,17.37
2022-11-16T07:12:38.142Z,17.57
2022-11-16T07:15:06.379Z,17.23
2022-11-16T07:17:35.096Z,17.03
2022-11-16T07:20:02.776Z,16.10
2022-11-16T07:22:31.714Z,15.53
2022-11-16T07:24:59.305Z,17.10
2022-11-16T07:27:26.958Z,16.53
2022-11-16T07:29:54.665Z,17.03
2022-11-16T07:32:22.320Z,16.37
2022-11-16T07:34:49.985Z,15.57
2022-11-16T07:37:17.613Z,16.17
2022-11-16T07:39:46.910Z,15.63
2022-11-16T07:42:14.514Z,13.90
2022-11-16T07:44:42.101Z,14.77
2022-11-16T07:47:09.722Z,14.63
2022-11-16T07:49:37.325Z,15.40
2022-11-16T07:52:04.978Z,15.40
2022-11-16T07:54:32.599Z,15.03
2022-11-16T07:57:01.582Z,15.53
2022-11-16T07:59:29.381Z,16.13
2022-11-16T08:01:57.061Z,15.60
2022-11-16T08:04:24.997Z,15.63
2022-11-16T08:06:52.848Z,15.40
2022-11-16T08:09:20.582Z,14.70
2022-11-16T08:11:48.198Z,14.87
2022-11-16T08:14:19.115Z,15.80
2022-11-16T08:16:46.851Z,14.67
2022-11-16T08:19:14.474Z,14.83
2022-11-16T08:21:42.343Z,14.80
2022-11-16T08:24:10.591Z,15.67
2022-11-16T08:26:38.362Z,15.47
2022-11-16T08:29:06.294Z,16.20
2022-11-16T08:31:35.439Z,16.40
2022-11-16T08:34:03.237Z,16.70
2022-11-16T08:36:31.096Z,16.23
2022-11-16T08:38:58.976Z,17.57
2022-11-16T08:41:26.740Z,16.10
2022-11-16T08:43:54.573Z,17.37
2022-11-16T08:46:22.810Z,17.47
2022-11-16T08:48:56.705Z,16.93
2022-11-16T08:51:25.443Z,16.30
2022-11-16T08:53:57.484Z,14.60
2022-11-16T08:56:27.417Z,15.33
2022-11-16T08:58:58.820Z,15.47
2022-11-16T09:01:29.187Z,15.40
2022-11-16T09:03:58.612Z,15.00
2022-11-16T09:06:28.101Z,15.37
2022-11-16T09:08:57.067Z,15.67
2022-11-16T09:11:26.686Z,15.30
2022-11-16T09:13:56.301Z,15.03
2022-11-16T09:16:30.580Z,14.87
2022-11-16T09:18:59.717Z,15.13
2022-11-16T09:21:29.115Z,14.63
2022-11-16T09:23:58.174Z,15.50
2022-11-16T09:26:26.586Z,15.50
2022-11-16T09:28:58.125Z,15.47
2022-11-16T09:31:27.487Z,14.77
2022-11-16T09:33:58.207Z,14.63
2022-11-16T09:36:33.681Z,15.17
2022-11-16T09:42:08.404Z,15.13
2022-11-16T09:45:01.378Z,15.73
2022-11-16T09:47:41.774Z,14.37
2022-11-16T09:50:22.544Z,15.27
2022-11-16T09:52:53.799Z,14.37
2022-11-16T09:55:26.881Z,14.07
2022-11-16T09:57:58.070Z,15.60
2022-11-16T10:00:26.121Z,15.67
2022-11-16T10:03:03.095Z,14.67
2022-11-16T10:05:36.545Z,15.80
2022-11-16T10:08:14.346Z,15.33
2022-11-16T10:10:52.656Z,15.23
2022-11-16T10:13:34.149Z,14.20
2022-11-16T10:16:08.594Z,16.20
2022-11-16T10:18:48.235Z,15.70
2022-11-16T10:21:30.107Z,15.40
2022-11-16T10:24:25.107Z,13.67
2022-11-16T10:27:03.777Z,14.60
2022-11-16T10:29:46.792Z,14.87
2022-11-16T10:32:22.394Z,14.20
2022-11-16T10:34:54.307Z,14.60
2022-11-16T10:37:22.852Z,13.77
2022-11-16T10:39:54.165Z,13.80
2022-11-16T10:42:32.191Z,12.43
2022-11-16T10:45:07.549Z,13.00
2022-11-16T10:47:42.613Z,14.40
2022-11-16T10:50:31.789Z,14.27
2022-11-16T10:52:59.854Z,13.50
2022-11-16T10:55:29.665Z,12.70
2022-11-16T10:57:59.952Z,14.47
2022-11-16T11:00:37.020Z,13.10
2022-11-16T11:03:04.887Z,13.47
2022-11-16T11:05:33.356Z,13.23
2022-11-16T11:08:03.316Z,13.73
2022-11-16T11:10:34.340Z,14.27
2022-11-16T11:13:05.952Z,13.53
2022-11-16T11:15:33.901Z,12.90
2022-11-16T11:18:17.323Z,11.93
2022-11-16T11:20:48.787Z,12.80
2022-11-16T11:23:19.860Z,12.63
2022-11-16T11:25:54.064Z,13.40
2022-11-16T11:28:26.156Z,13.27
2022-11-16T11:30:58.509Z,12.83
2022-11-16T11:33:28.420Z,13.43
2022-11-16T11:36:06.737Z,11.63
2022-11-16T11:38:35.747Z,13.30
2022-11-16T11:41:06.070Z,11.60
2022-11-16T11:43:35.063Z,12.50
2022-11-16T11:46:13.252Z,12.70
2022-11-16T11:48:48.156Z,12.13
2022-11-16T11:51:22.463Z,12.50
2022-11-16T11:53:57.782Z,11.00
2022-11-16T11:56:28.760Z,10.27
2022-11-16T11:58:57.405Z,10.40
2022-11-16T12:01:55.957Z,10.70
2022-11-16T12:05:03.812Z,9.77
2022-11-16T12:07:55.178Z,11.30
2022-11-16T12:10:35.703Z,10.40
2022-11-16T12:13:24.854Z,9.97
2022-11-16T12:16:05.548Z,11.40
2022-11-16T12:18:52.084Z,10.30
2022-11-16T12:21:30.462Z,9.60
2022-11-16T12:24:13.274Z,9.67
2022-11-16T12:26:55.321Z,9.27
2022-11-16T12:29:32.878Z,9.10
2022-11-16T12:32:22.890Z,8.37
2022-11-16T12:35:01.742Z,8.37
2022-11-16T12:37:39.371Z,7.40
2022-11-16T12:40:23.693Z,8.00
2022-11-16T12:42:58.804Z,8.73
2022-11-16T12:46:02.154Z,7.70
2022-11-16T12:48:51.397Z,8.43
2022-11-16T12:51:33.441Z,7.90
2022-11-16T12:54:37.933Z,7.80
2022-11-16T12:57:11.157Z,8.60
2022-11-16T12:59:54.816Z,8.27
2022-11-16T13:02:33.800Z,7.83
2022-11-16T13:05:12.858Z,8.33
2022-11-16T13:07:46.015Z,8.47
2022-11-16T13:10:19.442Z,8.53
2022-11-16T13:12:52.692Z,9.20
2022-11-16T13:15:30.345Z,8.87
2022-11-16T13:18:01.057Z,8.13
2022-11-16T13:20:39.476Z,8.10
2022-11-16T13:23:14.838Z,7.83
2022-11-16T13:25:49.340Z,7.63
2022-11-16T13:28:33.188Z,7.77
2022-11-16T13:31:06.146Z,7.77
2022-11-16T13:33:46.139Z,7.90
2022-11-16T13:36:47.693Z,7.00
2022-11-16T13:39:22.369Z,7.07
2022-11-16T13:41:51.656Z,7.13
2022-11-16T13:44:31.116Z,7.07
2022-11-16T13:47:04.536Z,7.03
2022-11-16T13:49:36.412Z,8.33
2022-11-16T13:52:22.646Z,7.53
2022-11-16T13:54:54.449Z,7.47
2022-11-16T13:57:26.836Z,8.23
2022-11-16T14:00:10.133Z,7.60
2022-11-16T14:02:39.986Z,8.40
2022-11-16T14:05:17.629Z,8.23
2022-11-16T14:07:49.935Z,7.23
2022-11-16T14:10:51.240Z,5.90
2022-11-16T14:13:40.840Z,8.13
2022-11-16T14:16:54.131Z,5.40
2022-11-16T14:19:56.267Z,5.80
2022-11-16T14:22:52.194Z,4.93
2022-11-16T14:25:33.536Z,5.50
2022-11-16T14:28:14.539Z,5.73
2022-11-16T14:30:55.870Z,4.67
2022-11-16T14:33:32.968Z,6.33
2022-11-16T14:36:05.485Z,5.17
2022-11-16T14:38:36.587Z,5.67
2022-11-16T14:41:07.217Z,5.13
2022-11-16T14:43:42.176Z,7.63
2022-11-16T14:46:20.695Z,5.77
2022-11-16T14:48:48.724Z,5.67
2022-11-16T14:51:22.222Z,6.20
2022-11-16T14:53:54.556Z,5.37
2022-11-16T14:56:22.819Z,5.63
2022-11-16T14:58:55.534Z,5.10
2022-11-16T15:01:26.094Z,5.50
2022-11-16T15:04:02.202Z,5.70
2022-11-16T15:06:32.622Z,3.73
2022-11-16T15:09:05.487Z,2.90
2022-11-16T15:11:54.591Z,2.33
2022-11-16T15:14:25.803Z,1.93
2022-11-16T15:16:55.627Z,2.70
2022-11-16T15:19:24.203Z,1.53
2022-11-16T15:21:54.243Z,3.00
2022-11-16T15:24:31.350Z,2.10
2022-11-16T15:27:10.662Z,2.43
2022-11-16T15:29:39.040Z,2.60
2022-11-16T15:32:08.097Z,2.70
2022-11-16T15:34:40.073Z,1.90
2022-11-16T15:37:12.416Z,2.10
2022-11-16T15:39:42.957Z,2.60
2022-11-16T15:42:15.761Z,2.60
2022-11-16T15:44:44.267Z,3.00
2022-11-16T15:47:14.513Z,1.97
2022-11-16T15:49:44.159Z,1.90
2022-11-16T15:52:12.053Z,1.47
2022-11-16T15:54:58.475Z,1.77
2022-11-16T15:57:26.636Z,1.77
2022-11-16T15:59:57.500Z,1.80
2022-11-16T16:02:28.156Z,1.60
2022-11-16T16:04:55.866Z,1.57
2022-11-16T16:07:40.073Z,1.73
2022-11-16T16:10:25.256Z,1.80
2022-11-16T16:12:54.094Z,1.80
2022-11-16T16:15:24.102Z,2.27
2022-11-16T16:17:52.812Z,1.90
2022-11-16T16:20:22.723Z,4.07
2022-11-16T16:22:50.601Z,4.40
2022-11-16T16:25:31.145Z,3.63
2022-11-16T16:27:59.157Z,2.10
2022-11-16T16:30:27.595Z,3.63
2022-11-16T16:32:55.444Z,3.80
2022-11-16T16:35:25.703Z,4.03
2022-11-16T16:37:58.572Z,4.97
2022-11-16T16:40:27.255Z,4.20
2022-11-16T16:42:57.945Z,3.33
2022-11-16T16:45:34.530Z,3.83
2022-11-16T16:48:02.394Z,4.30
2022-11-16T16:50:30.369Z,4.07
2022-11-16T16:52:58.227Z,3.10
2022-11-16T16:55:26.029Z,4.20
2022-11-16T16:57:53.952Z,4.13
2022-11-16T17:00:23.397Z,3.73
2022-11-16T17:02:51.540Z,5.20
2022-11-16T17:05:19.252Z,7.27
2022-11-16T17:07:47.138Z,6.53
2022-11-16T17:10:14.869Z,6.27
2022-11-16T17:12:42.738Z,5.17
2022-11-16T17:15:15.065Z,5.23
2022-11-16T17:17:47.202Z,4.43
2022-11-16T17:20:16.153Z,6.17
2022-11-16T17:22:44.026Z,5.60
2022-11-16T17:25:12.172Z,5.03
2022-11-16T17:27:39.959Z,6.03
2022-11-16T17:30:09.183Z,5.70
2022-11-16T17:32:36.771Z,6.03
2022-11-16T17:35:06.359Z,6.20
2022-11-16T17:37:34.078Z,6.47
2022-11-16T17:40:01.836Z,6.40
2022-11-16T17:42:29.584Z,5.80
2022-11-16T17:44:57.424Z,6.33
2022-11-16T17:47:25.419Z,6.60
2022-11-16T17:49:53.302Z,7.50
2022-11-16T17:52:22.422Z,8.17
2022-11-16T17:54:50.174Z,7.67
2022-11-16T17:57:18.098Z,11.90
2022-11-16T17:59:46.687Z,10.47
2022-11-16T18:02:14.482Z,14.13
2022-11-16T18:04:44.597Z,14.53
2022-11-16T18:07:16.099Z,16.03
2022-11-16T18:09:45.376Z,15.23
2022-11-16T18:12:13.061Z,13.57
2022-11-16T18:14:42.368Z,13.10
2022-11-16T18:17:10.448Z,10.00
2022-11-16T18:19:38.238Z,11.77
2022-11-16T18:22:06.115Z,12.50
2022-11-16T18:24:34.399Z,12.00
2022-11-16T18:27:03.737Z,12.57
2022-11-16T18:29:31.585Z,12.80
2022-11-16T18:31:59.370Z,12.53
2022-11-16T18:34:27.167Z,12.53
2022-11-16T18:36:55.415Z,15.17
2022-11-16T18:39:23.320Z,17.03
2022-11-16T18:41:55.087Z,19.80
2022-11-16T18:44:24.602Z,21.37
2022-11-16T18:46:52.463Z,18.60
2022-11-16T18:49:20.271Z,15.57
2022-11-16T18:51:48.253Z,11.53
2022-11-16T18:54:16.081Z,10.37
2022-11-16T18:56:43.840Z,10.83
2022-11-16T18:59:11.666Z,12.27
2022-11-16T19:01:40.804Z,11.83
2022-11-16T19:04:08.731Z,11.67
2022-11-16T19:06:36.559Z,12.57
2022-11-16T19:09:06.197Z,12.43
2022-11-16T19:11:33.986Z,11.00
2022-11-16T19:14:03.796Z,9.80
2022-11-16T19:16:32.526Z,10.50
2022-11-16T19:19:02.389Z,11.70
2022-11-16T19:21:30.374Z,10.73
2022-11-16T19:23:58.723Z,10.50
2022-11-16T19:26:28.196Z,10.67
2022-11-16T19:28:56.304Z,10.43
2022-11-16T19:31:25.970Z,11.20
2022-11-16T19:33:57.771Z,13.00
2022-11-16T19:36:28.146Z,12.67
2022-11-16T19:38:56.271Z,11.67
2022-11-16T19:41:25.194Z,11.37
2022-11-16T19:43:59.702Z,10.37
2022-11-16T19:46:28.965Z,11.03
2022-11-16T19:48:57.817Z,11.07
2022-11-16T19:51:29.221Z,10.63
2022-11-16T19:53:57.765Z,11.53
2022-11-16T19:56:25.672Z,11.50
2022-11-16T19:58:53.709Z,11.43
2022-11-16T20:01:25.436Z,10.43
2022-11-16T20:03:53.366Z,11.40
2022-11-16T20:06:22.742Z,11.43
2022-11-16T20:08:53.869Z,11.30
2022-11-16T20:11:24.157Z,10.40
2022-11-16T20:13:54.293Z,10.97
2022-11-16T20:16:23.552Z,10.47
2022-11-16T20:18:52.107Z,11.27
2022-11-16T20:21:23.871Z,11.43
2022-11-16T20:23:54.211Z,10.70
2022-11-16T20:26:22.618Z,12.20
2022-11-16T20:28:52.473Z,11.60
2022-11-16T20:31:21.957Z,12.27
2022-11-16T20:33:53.895Z,12.03
2022-11-16T20:36:22.788Z,11.93
2022-11-16T20:38:52.562Z,11.93
2022-11-16T20:41:21.885Z,11.03
2022-11-16T20:43:51.853Z,12.07
2022-11-16T20:46:21.264Z,11.20
2022-11-16T20:48:49.149Z,11.43
2022-11-16T20:51:18.397Z,11.13
2022-11-16T20:53:47.604Z,11.47
2022-11-16T20:56:19.136Z,11.47
2022-11-16T20:58:47.925Z,12.40
2022-11-16T21:01:17.805Z,12.50
2022-11-16T21:03:46.162Z,11.20
2022-11-16T21:06:15.195Z,11.53
2022-11-16T21:08:43.343Z,12.23
2022-11-16T21:11:12.323Z,11.80
2022-11-16T21:13:59.142Z,12.50
2022-11-16T21:16:27.138Z,11.30
2022-11-16T21:18:55.624Z,11.67
2022-11-16T21:21:23.859Z,11.50
2022-11-16T21:23:53.201Z,11.50
2022-11-16T21:26:22.468Z,11.67
2022-11-16T21:28:52.025Z,11.50
2022-11-16T21:31:23.023Z,10.77
2022-11-16T21:33:50.731Z,11.30
2022-11-16T21:36:20.212Z,11.53
2022-11-16T21:38:48.692Z,11.37
2022-11-16T21:41:18.179Z,11.70
2022-11-16T21:43:46.102Z,12.43
2022-11-16T21:46:16.924Z,12.33
2022-11-16T21:48:45.307Z,11.37
2022-11-16T21:51:14.477Z,11.60
2022-11-16T21:53:42.474Z,11.23
2022-11-16T21:56:14.856Z,12.00
2022-11-16T21:58:43.324Z,12.47
2022-11-16T22:01:12.489Z,12.33
2022-11-16T22:03:41.809Z,12.73
2022-11-16T22:06:31.597Z,13.03
2022-11-16T22:08:59.430Z,12.57
2022-11-16T22:11:27.334Z,12.53
2022-11-16T22:13:55.136Z,13.37
2022-11-16T22:16:23.749Z,12.83
2022-11-16T22:18:52.974Z,12.73
2022-11-16T22:21:20.727Z,12.10
2022-11-16T22:23:48.458Z,13.40
2022-11-16T22:26:16.449Z,12.70
2022-11-16T22:28:44.235Z,12.70
2022-11-16T22:31:13.731Z,12.90
2022-11-16T22:33:42.347Z,11.57
2022-11-16T22:36:13.325Z,12.03
2022-11-16T22:38:41.131Z,12.80
2022-11-16T22:41:08.803Z,12.33
2022-11-16T22:43:37.472Z,12.63
2022-11-16T22:46:06.755Z,13.20
2022-11-16T22:48:36.247Z,13.37
2022-11-16T22:51:06.552Z,14.27
2022-11-16T22:53:36.486Z,13.27
2022-11-16T22:56:06.629Z,14.53
2022-11-16T22:58:34.460Z,13.97
2022-11-16T23:01:02.153Z,15.93
2022-11-16T23:03:30.283Z,14.30
2022-11-16T23:05:57.974Z,14.07
2022-11-16T23:08:25.749Z,13.63
2022-11-16T23:11:19.733Z,14.57
2022-11-16T23:14:10.390Z,13.20
2022-11-16T23:16:39.234Z,13.17
2022-11-16T23:19:27.762Z,12.03
2022-11-16T23:22:13.739Z,12.23
2022-11-16T23:24:59.475Z,13.23
2022-11-16T23:27:37.993Z,12.63
2022-11-16T23:30:12.455Z,13.17
2022-11-16T23:32:41.575Z,12.87
2022-11-16T23:35:10.166Z,13.67
2022-11-16T23:37:51.670Z,12.57
2022-11-16T23:40:19.353Z,14.10
2022-11-16T23:43:06.118Z,14.67
2022-11-16T23:45:34.074Z,13.80
2022-11-16T23:48:01.805Z,14.00
2022-11-16T23:50:29.501Z,14.30
2022-11-16T23:52:57.128Z,14.57
2022-11-16T23:55:24.785Z,16.67
2022-11-16T23:57:53.873Z,16.37
